sensor_id;sensor_type;location;lat;lon;timestamp;temperature;humidity
1524;DHT22;755;53.658;10.118;2024-03-02T00:05:05;8.30;99.90
1524;DHT22;755;53.658;10.118;2024-03-02T00:15:18;8.20;99.90
1524;DHT22;755;53.658;10.118;2024-03-02T00:25:39;8.20;99.90
1524;DHT22;755;53.658;10.118;2024-03-02T00:35:44;8.10;99.90
1524;DHT22;755;53.658;10.118;2024-03-02T00:45:47;8.00;99.90
1524;DHT22;755;53.658;10.118;2024-03-02T00:55:49;8.00;99.90
1524;DHT22;755;53.658;10.118;2024-03-02T01:05:52;7.90;99.90
1524;DHT22;755;53.658;10.118;2024-03-02T01:15:54;7.80;99.90
1524;DHT22;755;53.658;10.118;2024-03-02T01:25:58;7.80;99.90
1524;DHT22;755;53.658;10.118;2024-03-02T01:36:00;7.90;99.90
1524;DHT22;755;53.658;10.118;2024-03-02T01:46:03;7.80;99.90
1524;DHT22;755;53.658;10.118;2024-03-02T01:56:05;7.90;99.90
1524;DHT22;755;53.658;10.118;2024-03-02T02:06:09;7.80;99.90
1524;DHT22;755;53.658;10.118;2024-03-02T02:16:11;7.80;99.90
1524;DHT22;755;53.658;10.118;2024-03-02T02:26:15;7.70;99.90
1524;DHT22;755;53.658;10.118;2024-03-02T02:36:17;7.80;99.90
1524;DHT22;755;53.658;10.118;2024-03-02T02:46:20;7.70;99.90
1524;DHT22;755;53.658;10.118;2024-03-02T02:56:22;7.60;99.90
1524;DHT22;755;53.658;10.118;2024-03-02T03:06:26;7.60;99.90
1524;DHT22;755;53.658;10.118;2024-03-02T03:16:28;7.60;99.90
1524;DHT22;755;53.658;10.118;2024-03-02T03:26:31;7.50;99.90
1524;DHT22;755;53.658;10.118;2024-03-02T03:36:33;7.60;99.90
1524;DHT22;755;53.658;10.118;2024-03-02T03:46:36;7.50;99.90
1524;DHT22;755;53.658;10.118;2024-03-02T03:56:38;7.50;99.90
1524;DHT22;755;53.658;10.118;2024-03-02T04:06:41;7.50;99.90
1524;DHT22;755;53.658;10.118;2024-03-02T04:16:43;7.50;99.90
1524;DHT22;755;53.658;10.118;2024-03-02T04:26:47;7.50;99.90
1524;DHT22;755;53.658;10.118;2024-03-02T04:36:48;7.40;99.90
1524;DHT22;755;53.658;10.118;2024-03-02T04:46:52;7.40;99.90
1524;DHT22;755;53.658;10.118;2024-03-02T04:56:54;7.40;99.90
1524;DHT22;755;53.658;10.118;2024-03-02T05:06:57;7.30;99.90
1524;DHT22;755;53.658;10.118;2024-03-02T05:16:59;7.40;99.90
1524;DHT22;755;53.658;10.118;2024-03-02T05:27:02;7.40;99.90
1524;DHT22;755;53.658;10.118;2024-03-02T05:37:05;7.30;99.90
1524;DHT22;755;53.658;10.118;2024-03-02T05:47:09;7.10;99.90
1524;DHT22;755;53.658;10.118;2024-03-02T05:57:10;7.20;99.90
1524;DHT22;755;53.658;10.118;2024-03-02T06:07:28;7.10;99.90
1524;DHT22;755;53.658;10.118;2024-03-02T06:17:30;7.10;99.90
1524;DHT22;755;53.658;10.118;2024-03-02T06:27:33;7.10;99.90
1524;DHT22;755;53.658;10.118;2024-03-02T06:37:35;7.10;99.90
1524;DHT22;755;53.658;10.118;2024-03-02T06:47:38;7.20;99.90
1524;DHT22;755;53.658;10.118;2024-03-02T06:57:40;7.10;99.90
1524;DHT22;755;53.658;10.118;2024-03-02T07:08:00;7.20;99.90
1524;DHT22;755;53.658;10.118;2024-03-02T07:18:04;7.20;99.90
1524;DHT22;755;53.658;10.118;2024-03-02T07:28:25;7.20;99.90
1524;DHT22;755;53.658;10.118;2024-03-02T07:38:28;7.40;99.90
1524;DHT22;755;53.658;10.118;2024-03-02T07:48:31;7.60;99.90
1524;DHT22;755;53.658;10.118;2024-03-02T07:58:33;7.90;99.90
1524;DHT22;755;53.658;10.118;2024-03-02T08:08:37;8.10;99.90
1524;DHT22;755;53.658;10.118;2024-03-02T08:18:39;8.20;99.90
1524;DHT22;755;53.658;10.118;2024-03-02T08:28:42;8.50;99.90
1524;DHT22;755;53.658;10.118;2024-03-02T08:38:44;9.10;1.00
1524;DHT22;755;53.658;10.118;2024-03-02T08:48:47;9.40;99.90
1524;DHT22;755;53.658;10.118;2024-03-02T08:58:50;9.20;12.00
1524;DHT22;755;53.658;10.118;2024-03-02T09:08:53;9.30;1.00
1524;DHT22;755;53.658;10.118;2024-03-02T09:18:55;9.60;99.90
1524;DHT22;755;53.658;10.118;2024-03-02T09:28:58;9.70;1.00
1524;DHT22;755;53.658;10.118;2024-03-02T09:39:00;10.40;28.80
1524;DHT22;755;53.658;10.118;2024-03-02T09:49:05;11.30;1.00
1524;DHT22;755;53.658;10.118;2024-03-02T09:59:07;11.50;1.00
1524;DHT22;755;53.658;10.118;2024-03-02T10:09:26;11.30;1.00
1524;DHT22;755;53.658;10.118;2024-03-02T10:19:29;11.50;99.90
1524;DHT22;755;53.658;10.118;2024-03-02T10:29:36;11.70;99.90
1524;DHT22;755;53.658;10.118;2024-03-02T10:39:39;11.80;99.90
1524;DHT22;755;53.658;10.118;2024-03-02T10:49:44;11.90;1.00
1524;DHT22;755;53.658;10.118;2024-03-02T10:59:52;12.00;1.00
1524;DHT22;755;53.658;10.118;2024-03-02T11:09:59;12.20;1.00
1524;DHT22;755;53.658;10.118;2024-03-02T11:20:08;12.40;1.00
1524;DHT22;755;53.658;10.118;2024-03-02T11:30:51;12.70;1.00
1524;DHT22;755;53.658;10.118;2024-03-02T11:40:53;12.70;99.90
1524;DHT22;755;53.658;10.118;2024-03-02T11:50:59;12.50;1.00
1524;DHT22;755;53.658;10.118;2024-03-02T12:01:02;12.50;1.00
1524;DHT22;755;53.658;10.118;2024-03-02T12:11:05;12.50;1.00
1524;DHT22;755;53.658;10.118;2024-03-02T12:21:08;12.50;1.00
1524;DHT22;755;53.658;10.118;2024-03-02T12:31:11;12.50;1.00
1524;DHT22;755;53.658;10.118;2024-03-02T12:41:14;12.60;1.00
1524;DHT22;755;53.658;10.118;2024-03-02T12:51:18;12.60;1.00
1524;DHT22;755;53.658;10.118;2024-03-02T13:01:20;12.80;1.00
1524;DHT22;755;53.658;10.118;2024-03-02T13:11:23;12.80;1.00
1524;DHT22;755;53.658;10.118;2024-03-02T13:21:26;12.90;99.90
1524;DHT22;755;53.658;10.118;2024-03-02T13:31:29;13.00;99.90
1524;DHT22;755;53.658;10.118;2024-03-02T13:41:31;13.00;99.90
1524;DHT22;755;53.658;10.118;2024-03-02T13:51:34;13.10;99.90
1524;DHT22;755;53.658;10.118;2024-03-02T14:01:36;13.00;99.90
1524;DHT22;755;53.658;10.118;2024-03-02T14:11:40;13.00;99.90
1524;DHT22;755;53.658;10.118;2024-03-02T14:21:44;13.10;99.90
1524;DHT22;755;53.658;10.118;2024-03-02T14:31:47;13.10;99.90
1524;DHT22;755;53.658;10.118;2024-03-02T14:41:49;13.50;99.90
1524;DHT22;755;53.658;10.118;2024-03-02T14:51:53;13.70;99.90
1524;DHT22;755;53.658;10.118;2024-03-02T15:01:55;13.70;99.90
1524;DHT22;755;53.658;10.118;2024-03-02T15:11:58;13.40;99.90
1524;DHT22;755;53.658;10.118;2024-03-02T15:22:01;13.20;99.90
1524;DHT22;755;53.658;10.118;2024-03-02T15:32:05;12.80;1.00
1524;DHT22;755;53.658;10.118;2024-03-02T15:42:07;12.60;1.00
1524;DHT22;755;53.658;10.118;2024-03-02T15:52:11;12.40;1.00
1524;DHT22;755;53.658;10.118;2024-03-02T16:02:14;12.20;1.00
1524;DHT22;755;53.658;10.118;2024-03-02T16:12:18;11.90;99.90
1524;DHT22;755;53.658;10.118;2024-03-02T16:22:20;11.60;99.90
1524;DHT22;755;53.658;10.118;2024-03-02T16:32:23;11.50;99.90
1524;DHT22;755;53.658;10.118;2024-03-02T16:42:26;11.20;99.90
1524;DHT22;755;53.658;10.118;2024-03-02T16:52:29;10.90;99.90
1524;DHT22;755;53.658;10.118;2024-03-02T17:02:32;10.70;99.90
1524;DHT22;755;53.658;10.118;2024-03-02T17:12:35;10.40;99.90
1524;DHT22;755;53.658;10.118;2024-03-02T17:22:37;10.20;99.90
1524;DHT22;755;53.658;10.118;2024-03-02T17:32:40;10.10;1.00
1524;DHT22;755;53.658;10.118;2024-03-02T17:42:45;10.00;1.00
1524;DHT22;755;53.658;10.118;2024-03-02T17:52:48;9.80;99.90
1524;DHT22;755;53.658;10.118;2024-03-02T18:02:51;9.80;1.00
1524;DHT22;755;53.658;10.118;2024-03-02T18:12:58;9.70;23.40
1524;DHT22;755;53.658;10.118;2024-03-02T18:23:00;9.40;1.00
1524;DHT22;755;53.658;10.118;2024-03-02T18:33:07;9.10;99.90
1524;DHT22;755;53.658;10.118;2024-03-02T18:43:10;8.90;1.00
1524;DHT22;755;53.658;10.118;2024-03-02T18:53:13;8.90;1.00
1524;DHT22;755;53.658;10.118;2024-03-02T19:03:16;8.80;1.00
1524;DHT22;755;53.658;10.118;2024-03-02T19:13:20;8.90;1.00
1524;DHT22;755;53.658;10.118;2024-03-02T19:23:24;8.80;1.00
1524;DHT22;755;53.658;10.118;2024-03-02T19:33:28;8.80;83.70
1524;DHT22;755;53.658;10.118;2024-03-02T19:43:30;8.70;99.90
1524;DHT22;755;53.658;10.118;2024-03-02T19:53:33;8.70;99.90
1524;DHT22;755;53.658;10.118;2024-03-02T20:03:35;8.60;99.90
1524;DHT22;755;53.658;10.118;2024-03-02T20:13:39;8.40;99.90
1524;DHT22;755;53.658;10.118;2024-03-02T20:23:41;8.20;99.90
1524;DHT22;755;53.658;10.118;2024-03-02T20:33:44;8.00;99.90
1524;DHT22;755;53.658;10.118;2024-03-02T20:43:47;8.00;99.90
1524;DHT22;755;53.658;10.118;2024-03-02T20:53:50;7.90;99.90
1524;DHT22;755;53.658;10.118;2024-03-02T21:03:53;8.00;99.90
1524;DHT22;755;53.658;10.118;2024-03-02T21:13:56;7.90;99.90
1524;DHT22;755;53.658;10.118;2024-03-02T21:23:59;7.80;99.90
1524;DHT22;755;53.658;10.118;2024-03-02T21:34:03;7.80;99.90
1524;DHT22;755;53.658;10.118;2024-03-02T21:44:05;7.70;99.90
1524;DHT22;755;53.658;10.118;2024-03-02T21:54:09;7.70;99.90
1524;DHT22;755;53.658;10.118;2024-03-02T22:04:11;7.40;99.90
1524;DHT22;755;53.658;10.118;2024-03-02T22:14:17;7.30;99.90
1524;DHT22;755;53.658;10.118;2024-03-02T22:24:19;7.30;99.90
1524;DHT22;755;53.658;10.118;2024-03-02T22:34:25;7.20;99.90
1524;DHT22;755;53.658;10.118;2024-03-02T22:44:27;7.10;99.90
1524;DHT22;755;53.658;10.118;2024-03-02T22:54:30;7.00;99.90
1524;DHT22;755;53.658;10.118;2024-03-02T23:04:32;6.70;99.90
1524;DHT22;755;53.658;10.118;2024-03-02T23:14:35;6.60;99.90
1524;DHT22;755;53.658;10.118;2024-03-02T23:24:39;6.70;99.90
1524;DHT22;755;53.658;10.118;2024-03-02T23:34:43;6.80;99.90
1524;DHT22;755;53.658;10.118;2024-03-02T23:44:46;6.80;99.90
1524;DHT22;755;53.658;10.118;2024-03-02T23:54:50;6.70;99.90
